Calabasas, California
Current Conditions -  °F | °C
As of 6:51 PM on Wednesday 26 Nov 2014 (Local Time) from KVNY Reporting Station
Clear Clear  
Wind Chill: 72°   Ceiling: Unl
Heat Index: 72°   Visibility: 10mi
Dew Point: 14°   Wind: 9mph
Humidity: 11%   Direction: 360°N
Pressure: 30.15"   Gusts: NA
Location:  34.16°N, 118.64°W
Report Text: KVNY 270251Z 36008KT 10SM CLR 22/M10 A3015 RMK AO2 SLP204 T02221100 53005
Loading
Personal Weather Stations






























Interactive Weather Map New forecast layout! Learn more

10-Day Weather Forecast

Advertisements
Track Severe Weather on mobile